Vihari Weather



Vihari's Current Weather

Temprature 38.95o clear sky

clear sky

Rain: 0 %

Min Temprature38.95o
Max Temprature38.95o
Humidity33
Wind Speed4.78 m/h
Sun Rise05:36:55
Sun Set18:54:10
Current Time: 13-Aug-2020 19:47:58
Lat/Lon: 30.03, 72.35




Vihari's Geo Location



Vihari's Weather Forecast

Time Overall Temp Min Temp Max Temp Humidity Wind Speed Rain
13-Aug-2020 (Thu)
20:00:00 clear sky 41.070 38.950 41.070 30 4.78 m/h 0 %
23:00:00 clear sky 38.470 37.200 38.470 36 3.53 m/h 0 %
14-Aug-2020 (Fri)
02:00:00 broken clouds 36.130 35.650 36.130 43 2.4 m/h 0 %
05:00:00 light rain 34.620 34.550 34.620 48 2.13 m/h 39 %
08:00:00 light rain 36.250 36.250 36.250 46 2.97 m/h 12 %
11:00:00 broken clouds 41.160 41.160 41.160 34 1.5 m/h 0 %
14:00:00 broken clouds 40.980 40.980 40.980 34 3.69 m/h 0 %
17:00:00 light rain 39.220 39.220 39.220 38 2.41 m/h 79 %
20:00:00 light rain 35.200 35.200 35.200 50 5.05 m/h 21 %
23:00:00 few clouds 35.220 35.220 35.220 47 2.65 m/h 0 %
15-Aug-2020 (Sat)
02:00:00 few clouds 34.440 34.440 34.440 51 2.59 m/h 0 %
05:00:00 light rain 32.690 32.690 32.690 58 3.58 m/h 29 %
08:00:00 clear sky 36.810 36.810 36.810 42 4.08 m/h 0 %
11:00:00 clear sky 41.680 41.680 41.680 31 3.42 m/h 0 %
14:00:00 broken clouds 42.020 42.020 42.020 30 4.06 m/h 0 %
17:00:00 light rain 37.690 37.690 37.690 41 4.4 m/h 55 %
20:00:00 few clouds 36.960 36.960 36.960 41 3.36 m/h 0 %
23:00:00 few clouds 36.110 36.110 36.110 42 3.26 m/h 0 %
16-Aug-2020 (Sun)
02:00:00 few clouds 35.240 35.240 35.240 47 2.54 m/h 0 %
05:00:00 few clouds 34.450 34.450 34.450 47 1.36 m/h 0 %
08:00:00 clear sky 36.960 36.960 36.960 44 4.04 m/h 0 %
11:00:00 few clouds 41.290 41.290 41.290 32 3.93 m/h 0 %
14:00:00 scattered clouds 43.540 43.540 43.540 26 4.71 m/h 0 %
17:00:00 light rain 40.300 40.300 40.300 32 4.74 m/h 22 %
20:00:00 broken clouds 37.240 37.240 37.240 40 4.72 m/h 0 %
23:00:00 scattered clouds 35.610 35.610 35.610 47 4.44 m/h 0 %
17-Aug-2020 (Mon)
02:00:00 clear sky 35.370 35.370 35.370 45 4.42 m/h 0 %
05:00:00 clear sky 33.860 33.860 33.860 52 4.56 m/h 0 %
08:00:00 clear sky 35.790 35.790 35.790 47 6.31 m/h 0 %
11:00:00 few clouds 40.270 40.270 40.270 34 6.4 m/h 0 %
14:00:00 few clouds 43.360 43.360 43.360 27 5.24 m/h 0 %
17:00:00 scattered clouds 41.140 41.140 41.140 30 5.96 m/h 0 %
20:00:00 overcast clouds 37.850 37.850 37.850 37 4.17 m/h 0 %
23:00:00 overcast clouds 34.810 34.810 34.810 47 7.72 m/h 0 %
18-Aug-2020 (Tue)
02:00:00 overcast clouds 33.150 33.150 33.150 53 4.73 m/h 0 %
05:00:00 light rain 31.740 31.740 31.740 58 4.54 m/h 70 %
08:00:00 few clouds 35.210 35.210 35.210 47 6.06 m/h 0 %
11:00:00 scattered clouds 40.440 40.440 40.440 35 5.58 m/h 0 %
14:00:00 scattered clouds 42.230 42.230 42.230 31 5.53 m/h 0 %
17:00:00 broken clouds 41.050 41.050 41.050 33 5.02 m/h 0 %

Famous Cities (60)